createdAt,value
2018-11-26T00:00:36.448Z,5.70
2018-11-26T00:03:08.285Z,5.70
2018-11-26T00:05:37.122Z,5.70
2018-11-26T00:08:05.929Z,5.60
2018-11-26T00:10:45.402Z,5.70
2018-11-26T00:13:13.704Z,5.60
2018-11-26T00:15:42.587Z,5.60
2018-11-26T00:18:10.920Z,5.60
2018-11-26T00:20:39.248Z,5.60
2018-11-26T00:23:07.626Z,5.60
2018-11-26T00:25:35.945Z,5.60
2018-11-26T00:28:04.266Z,5.50
2018-11-26T00:30:32.549Z,5.60
2018-11-26T00:33:00.833Z,5.50
2018-11-26T00:35:29.174Z,5.50
2018-11-26T00:37:57.459Z,5.50
2018-11-26T00:40:25.772Z,5.50
2018-11-26T00:42:54.058Z,5.50
2018-11-26T00:45:22.369Z,5.50
2018-11-26T00:47:50.648Z,5.50
2018-11-26T00:50:18.937Z,5.50
2018-11-26T00:52:47.222Z,5.40
2018-11-26T00:55:15.493Z,5.40
2018-11-26T00:57:43.787Z,5.40
2018-11-26T01:00:12.712Z,5.40
2018-11-26T01:02:41.043Z,5.40
2018-11-26T01:05:14.958Z,5.40
2018-11-26T01:07:43.284Z,5.40
2018-11-26T01:10:11.582Z,5.30
2018-11-26T01:12:39.899Z,5.30
2018-11-26T01:15:08.195Z,5.30
2018-11-26T01:17:36.513Z,5.30
2018-11-26T01:20:05.133Z,5.30
2018-11-26T01:22:33.453Z,5.30
2018-11-26T01:25:01.745Z,5.30
2018-11-26T01:27:30.054Z,5.30
2018-11-26T01:29:58.345Z,5.20
2018-11-26T01:32:26.637Z,5.20
2018-11-26T01:34:54.972Z,5.20
2018-11-26T01:37:23.255Z,5.20
2018-11-26T01:39:51.581Z,5.20
2018-11-26T01:42:19.873Z,5.20
2018-11-26T01:44:48.157Z,5.20
2018-11-26T01:47:16.437Z,5.20
2018-11-26T01:49:44.722Z,5.20
2018-11-26T01:52:13.027Z,5.20
2018-11-26T01:54:48.090Z,5.20
2018-11-26T01:57:16.432Z,5.20
2018-11-26T01:59:44.736Z,5.20
2018-11-26T02:02:13.045Z,5.20
2018-11-26T02:04:41.349Z,5.20
2018-11-26T02:07:09.645Z,5.10
2018-11-26T02:09:37.963Z,5.10
2018-11-26T02:12:06.561Z,5.10
2018-11-26T02:14:34.849Z,5.10
2018-11-26T02:17:03.152Z,5.10
2018-11-26T02:19:31.509Z,5.10
2018-11-26T02:21:59.828Z,5.10
2018-11-26T02:24:28.133Z,5.10
2018-11-26T02:26:56.456Z,5.10
2018-11-26T02:29:24.750Z,5.10
2018-11-26T02:31:53.353Z,5.10
2018-11-26T02:34:21.677Z,5.10
2018-11-26T02:36:50.007Z,5.10
2018-11-26T02:39:18.309Z,5.10
2018-11-26T02:41:46.649Z,5.10
2018-11-26T02:44:14.951Z,5.10
2018-11-26T02:46:43.257Z,5.10
2018-11-26T02:49:11.564Z,5.10
2018-11-26T02:51:39.854Z,5.10
2018-11-26T02:54:08.133Z,5.10
2018-11-26T02:56:36.462Z,5.10
2018-11-26T02:59:05.320Z,5.10
2018-11-26T03:01:33.633Z,5.10
2018-11-26T03:04:01.959Z,5.10
2018-11-26T03:06:30.287Z,5.10
2018-11-26T03:08:58.583Z,5.10
2018-11-26T03:11:26.986Z,5.20
2018-11-26T03:13:55.298Z,5.10
2018-11-26T03:16:23.590Z,5.20
2018-11-26T03:18:51.885Z,5.20
2018-11-26T03:21:20.169Z,5.10
2018-11-26T03:23:48.480Z,5.10
2018-11-26T03:26:16.803Z,5.20
2018-11-26T03:28:45.126Z,5.10
2018-11-26T03:31:13.443Z,5.10
2018-11-26T03:33:41.725Z,5.10
2018-11-26T03:36:10.029Z,5.20
2018-11-26T03:38:50.381Z,5.20
2018-11-26T03:41:18.787Z,5.10
2018-11-26T03:43:47.132Z,5.20
2018-11-26T03:46:15.427Z,5.20
2018-11-26T03:48:43.725Z,5.10
2018-11-26T03:51:12.044Z,5.10
2018-11-26T03:53:40.371Z,5.10
2018-11-26T03:56:08.712Z,5.10
2018-11-26T03:58:36.995Z,5.10
2018-11-26T04:01:05.590Z,5.20
2018-11-26T04:03:33.897Z,5.10
2018-11-26T04:06:02.217Z,5.20
2018-11-26T04:08:30.502Z,5.20
2018-11-26T04:10:58.835Z,5.20
2018-11-26T04:13:27.113Z,5.20
2018-11-26T04:15:55.412Z,5.20
2018-11-26T04:18:23.708Z,5.20
2018-11-26T04:20:52.014Z,5.10
2018-11-26T04:23:20.323Z,5.20
2018-11-26T04:25:48.617Z,5.20
2018-11-26T04:28:16.927Z,5.20
2018-11-26T04:30:45.336Z,5.20
2018-11-26T04:33:13.630Z,5.20
2018-11-26T04:35:41.942Z,5.20
2018-11-26T04:38:10.213Z,5.20
2018-11-26T04:40:38.538Z,5.20
2018-11-26T04:43:06.824Z,5.20
2018-11-26T04:45:35.159Z,5.20
2018-11-26T04:48:03.477Z,5.20
2018-11-26T04:50:31.835Z,5.20
2018-11-26T04:53:01.038Z,5.20
2018-11-26T04:55:29.343Z,5.20
2018-11-26T04:57:57.660Z,5.20
2018-11-26T05:00:25.972Z,5.20
2018-11-26T05:02:54.257Z,5.20
2018-11-26T05:05:22.570Z,5.20
2018-11-26T05:07:50.896Z,5.20
2018-11-26T05:10:19.374Z,5.20
2018-11-26T05:12:47.670Z,5.20
2018-11-26T05:15:16.009Z,5.20
2018-11-26T05:17:46.159Z,5.20
2018-11-26T05:20:14.798Z,5.20
2018-11-26T05:22:43.104Z,5.20
2018-11-26T05:25:11.925Z,5.20
2018-11-26T05:27:40.227Z,5.20
2018-11-26T05:30:10.713Z,5.20
2018-11-26T05:32:39.043Z,5.20
2018-11-26T05:35:08.714Z,5.20
2018-11-26T05:37:37.035Z,5.20
2018-11-26T05:40:07.748Z,5.20
2018-11-26T05:42:36.042Z,5.20
2018-11-26T05:45:05.308Z,5.20
2018-11-26T05:47:33.617Z,5.20
2018-11-26T05:50:01.894Z,5.20
2018-11-26T05:52:30.175Z,5.20
2018-11-26T05:54:58.472Z,5.20
2018-11-26T05:57:27.495Z,5.20
2018-11-26T05:59:55.822Z,5.20
2018-11-26T06:02:24.140Z,5.20
2018-11-26T06:04:52.454Z,5.20
2018-11-26T06:07:20.746Z,5.20
2018-11-26T06:09:49.028Z,5.20
2018-11-26T06:12:17.344Z,5.20
2018-11-26T06:14:46.140Z,5.10
2018-11-26T06:17:14.443Z,5.10
2018-11-26T06:19:42.741Z,5.10
2018-11-26T06:22:11.094Z,5.10
2018-11-26T06:24:39.425Z,5.10
2018-11-26T06:27:07.741Z,5.10
2018-11-26T06:29:36.024Z,5.10
2018-11-26T06:32:04.394Z,5.10
2018-11-26T06:34:32.712Z,5.10
2018-11-26T06:37:01.032Z,5.10
2018-11-26T06:39:29.367Z,5.20
2018-11-26T06:41:57.675Z,5.10
2018-11-26T06:44:25.993Z,5.10
2018-11-26T06:46:54.272Z,5.10
2018-11-26T06:49:22.561Z,5.10
2018-11-26T06:51:50.876Z,5.10
2018-11-26T06:54:19.168Z,5.10
2018-11-26T06:56:47.481Z,5.10
2018-11-26T06:59:16.596Z,5.10
2018-11-26T07:01:44.912Z,5.10
2018-11-26T07:04:13.232Z,5.10
2018-11-26T07:06:41.561Z,5.10
2018-11-26T07:09:09.864Z,5.10
2018-11-26T07:11:38.203Z,5.10
2018-11-26T07:14:06.550Z,5.10
2018-11-26T07:16:35.484Z,5.10
2018-11-26T07:19:03.812Z,5.10
2018-11-26T07:21:32.096Z,5.10
2018-11-26T07:24:00.428Z,5.10
2018-11-26T07:26:28.704Z,5.10
2018-11-26T07:28:57.000Z,5.10
2018-11-26T07:31:25.288Z,5.10
2018-11-26T07:33:53.616Z,5.10
2018-11-26T07:36:21.898Z,5.10
2018-11-26T07:38:50.218Z,5.10
2018-11-26T07:41:18.522Z,5.20
2018-11-26T07:43:46.900Z,5.20
2018-11-26T07:46:15.188Z,5.20
2018-11-26T07:48:43.551Z,5.20
2018-11-26T07:51:11.911Z,5.30
2018-11-26T07:53:40.216Z,5.20
2018-11-26T07:56:08.570Z,5.30
2018-11-26T07:58:36.856Z,5.30
2018-11-26T08:01:05.758Z,5.30
2018-11-26T08:03:34.235Z,5.30
2018-11-26T08:06:08.756Z,5.30
2018-11-26T08:08:30.858Z,5.30
2018-11-26T08:10:59.155Z,5.30
2018-11-26T08:13:27.458Z,5.20
2018-11-26T08:15:55.780Z,5.20
2018-11-26T08:18:24.118Z,5.20
2018-11-26T08:20:52.530Z,5.30
2018-11-26T08:23:20.833Z,5.30
2018-11-26T08:25:49.148Z,5.20
2018-11-26T08:28:17.484Z,5.20
2018-11-26T08:30:45.767Z,5.20
2018-11-26T08:33:14.087Z,5.20
2018-11-26T08:35:42.404Z,5.20
2018-11-26T08:38:18.798Z,5.30
2018-11-26T08:40:49.336Z,5.20
2018-11-26T08:43:19.655Z,5.30
2018-11-26T08:45:56.288Z,5.30
2018-11-26T08:48:31.193Z,5.30
2018-11-26T08:51:00.656Z,5.30
2018-11-26T08:53:29.001Z,5.30
2018-11-26T08:55:57.378Z,5.30
2018-11-26T08:58:25.674Z,5.30
2018-11-26T09:00:59.236Z,5.30
2018-11-26T09:03:32.901Z,5.30
2018-11-26T09:06:02.213Z,5.30
2018-11-26T09:08:31.524Z,5.30
2018-11-26T09:11:00.221Z,5.30
2018-11-26T09:13:28.528Z,5.30
2018-11-26T09:15:56.799Z,5.30
2018-11-26T09:18:25.123Z,5.30
2018-11-26T09:20:53.470Z,5.30
2018-11-26T09:23:21.808Z,5.30
2018-11-26T09:25:50.129Z,5.30
2018-11-26T09:28:18.463Z,5.30
2018-11-26T09:30:46.778Z,5.40
2018-11-26T09:33:15.140Z,5.40
2018-11-26T09:35:43.492Z,5.50
2018-11-26T09:38:13.083Z,5.50
2018-11-26T09:40:40.233Z,5.50
2018-11-26T09:43:08.636Z,5.60
2018-11-26T09:45:40.381Z,5.70
2018-11-26T09:48:05.436Z,5.70
2018-11-26T09:50:33.729Z,5.70
2018-11-26T09:53:02.052Z,5.70
2018-11-26T09:55:30.367Z,5.80
2018-11-26T09:57:58.658Z,5.90
2018-11-26T10:00:27.034Z,5.90
2018-11-26T10:02:55.358Z,5.90
2018-11-26T10:05:24.995Z,5.90
2018-11-26T10:07:53.315Z,6.00
2018-11-26T10:10:21.647Z,6.00
2018-11-26T10:12:49.956Z,6.00
2018-11-26T10:15:22.062Z,6.10
2018-11-26T10:17:50.458Z,6.10
2018-11-26T10:20:18.785Z,6.20
2018-11-26T10:22:47.654Z,6.10
2018-11-26T10:25:17.210Z,6.10
2018-11-26T10:27:45.529Z,6.10
2018-11-26T10:30:14.956Z,6.20
2018-11-26T10:32:43.699Z,6.20
2018-11-26T10:35:13.015Z,6.20
2018-11-26T10:37:41.382Z,6.20
2018-11-26T10:40:17.748Z,6.20
2018-11-26T10:42:46.056Z,6.20
2018-11-26T10:45:15.414Z,6.10
2018-11-26T10:47:43.746Z,6.10
2018-11-26T10:50:13.100Z,6.10
2018-11-26T10:52:43.780Z,6.10
2018-11-26T10:55:18.367Z,6.10
2018-11-26T10:57:47.538Z,6.20
2018-11-26T11:00:21.840Z,6.20
2018-11-26T11:02:50.691Z,6.30
2018-11-26T11:05:19.060Z,6.30
2018-11-26T11:07:47.366Z,6.30
2018-11-26T11:10:18.016Z,6.30
2018-11-26T11:12:46.343Z,6.30
2018-11-26T11:15:14.652Z,6.30
2018-11-26T11:17:42.997Z,6.30
2018-11-26T11:20:15.248Z,6.20
2018-11-26T11:22:43.594Z,6.20
2018-11-26T11:25:13.853Z,6.10
2018-11-26T11:27:42.309Z,6.10
2018-11-26T11:30:12.898Z,6.10
2018-11-26T11:32:41.374Z,6.10
2018-11-26T11:35:10.742Z,6.10
2018-11-26T11:37:39.071Z,6.20
2018-11-26T11:40:14.019Z,6.20
2018-11-26T11:42:42.350Z,6.20
2018-11-26T11:45:11.920Z,6.30
2018-11-26T11:47:40.275Z,6.30
2018-11-26T11:50:11.601Z,6.30
2018-11-26T11:52:39.925Z,6.30
2018-11-26T11:55:10.546Z,6.30
2018-11-26T11:57:38.841Z,6.30
2018-11-26T12:00:44.080Z,6.30
2018-11-26T12:03:14.755Z,6.30
2018-11-26T12:05:43.087Z,6.30
2018-11-26T12:08:11.423Z,6.30
2018-11-26T12:10:39.755Z,6.30
2018-11-26T12:13:09.401Z,6.30
2018-11-26T12:15:39.471Z,6.30
2018-11-26T12:18:08.274Z,6.30
2018-11-26T12:20:36.849Z,6.30
2018-11-26T12:23:05.239Z,6.30
2018-11-26T12:25:35.987Z,6.30
2018-11-26T12:28:04.339Z,6.30
2018-11-26T12:30:35.095Z,6.30
2018-11-26T12:33:03.417Z,6.30
2018-11-26T12:35:31.740Z,6.30
2018-11-26T12:38:00.055Z,6.30
2018-11-26T12:40:28.379Z,6.30
2018-11-26T12:42:57.829Z,6.30
2018-11-26T12:45:30.254Z,6.30
2018-11-26T12:47:58.767Z,6.30
2018-11-26T12:50:27.113Z,6.30
2018-11-26T12:52:55.417Z,6.20
2018-11-26T12:55:24.342Z,6.20
2018-11-26T12:57:53.327Z,6.20
2018-11-26T13:00:29.377Z,6.20
2018-11-26T13:02:59.129Z,6.20
2018-11-26T13:05:27.515Z,6.10
2018-11-26T13:07:55.774Z,6.10
2018-11-26T13:10:24.261Z,6.10
2018-11-26T13:12:52.874Z,6.00
2018-11-26T13:15:24.819Z,6.10
2018-11-26T13:17:53.200Z,6.10
2018-11-26T13:20:26.416Z,6.10
2018-11-26T13:22:54.943Z,6.10
2018-11-26T13:25:32.335Z,6.10
2018-11-26T13:28:02.740Z,6.10
2018-11-26T13:30:34.482Z,6.10
2018-11-26T13:33:04.353Z,6.10
2018-11-26T13:35:32.674Z,6.10
2018-11-26T13:38:01.045Z,6.20
2018-11-26T13:40:29.353Z,6.20
2018-11-26T13:42:57.666Z,6.10
2018-11-26T13:45:29.629Z,6.10
2018-11-26T13:47:57.930Z,6.10
2018-11-26T13:50:31.776Z,6.10
2018-11-26T13:53:00.156Z,6.10
2018-11-26T13:55:28.550Z,6.10
2018-11-26T13:57:58.810Z,6.20
2018-11-26T14:00:26.203Z,6.30
2018-11-26T14:02:54.696Z,6.30
2018-11-26T14:05:22.989Z,6.30
2018-11-26T14:07:51.326Z,6.30
2018-11-26T14:10:24.434Z,6.30
2018-11-26T14:13:01.204Z,6.30
2018-11-26T14:15:29.605Z,6.20
2018-11-26T14:17:57.924Z,6.30
2018-11-26T14:20:26.297Z,6.30
2018-11-26T14:22:54.580Z,6.30
2018-11-26T14:25:22.888Z,6.30
2018-11-26T14:27:51.195Z,6.30
2018-11-26T14:30:25.461Z,6.30
2018-11-26T14:32:54.171Z,6.30
2018-11-26T14:35:22.617Z,6.30
2018-11-26T14:37:53.302Z,6.20
2018-11-26T14:40:26.920Z,6.30
2018-11-26T14:42:55.305Z,6.30
2018-11-26T14:45:23.664Z,6.30
2018-11-26T14:47:52.019Z,6.30
2018-11-26T14:50:20.349Z,6.20
2018-11-26T14:52:49.455Z,6.30
2018-11-26T14:55:21.209Z,6.20
2018-11-26T14:57:49.529Z,6.20
2018-11-26T15:00:18.570Z,6.20
2018-11-26T15:02:46.886Z,6.20
2018-11-26T15:05:15.441Z,6.20
2018-11-26T15:07:44.058Z,6.20
2018-11-26T15:10:16.294Z,6.20
2018-11-26T15:12:45.020Z,6.20
2018-11-26T15:15:15.416Z,6.20
2018-11-26T15:17:44.339Z,6.20
2018-11-26T15:20:16.754Z,6.20
2018-11-26T15:22:45.145Z,6.20
2018-11-26T15:25:16.978Z,6.20
2018-11-26T15:27:45.298Z,6.20
2018-11-26T15:30:15.716Z,6.20
2018-11-26T15:32:44.192Z,6.20
2018-11-26T15:35:15.483Z,6.10
2018-11-26T15:37:43.877Z,6.20
2018-11-26T15:40:13.248Z,6.10
2018-11-26T15:42:41.651Z,6.10
2018-11-26T15:45:15.234Z,6.10
2018-11-26T15:47:43.557Z,6.10
2018-11-26T15:50:11.925Z,6.10
2018-11-26T15:52:40.257Z,6.10
2018-11-26T15:55:10.126Z,6.10
2018-11-26T15:57:38.473Z,6.10
2018-11-26T16:00:16.262Z,6.00
2018-11-26T16:02:44.636Z,6.00
2018-11-26T16:05:15.485Z,6.00
2018-11-26T16:07:43.912Z,6.00
2018-11-26T16:10:13.294Z,6.00
2018-11-26T16:12:43.391Z,6.00
2018-11-26T16:15:14.157Z,6.00
2018-11-26T16:17:42.519Z,6.00
2018-11-26T16:20:14.369Z,6.00
2018-11-26T16:22:43.556Z,6.00
2018-11-26T16:25:13.243Z,6.00
2018-11-26T16:27:41.567Z,6.00
2018-11-26T16:30:12.909Z,6.00
2018-11-26T16:32:41.759Z,6.00
2018-11-26T16:35:14.499Z,6.00
2018-11-26T16:37:42.921Z,6.00
2018-11-26T16:40:13.480Z,6.00
2018-11-26T16:42:41.819Z,6.10
2018-11-26T16:45:12.809Z,6.00
2018-11-26T16:47:41.182Z,6.10
2018-11-26T16:50:11.053Z,6.00
2018-11-26T16:52:39.456Z,6.00
2018-11-26T16:55:15.085Z,6.00
2018-11-26T16:57:43.525Z,5.90
2018-11-26T17:00:27.372Z,5.90
2018-11-26T17:02:59.722Z,5.90
2018-11-26T17:05:35.918Z,5.80
2018-11-26T17:08:04.609Z,5.80
2018-11-26T17:10:32.959Z,5.70
2018-11-26T17:13:01.299Z,5.70
2018-11-26T17:15:29.650Z,5.70
2018-11-26T17:17:57.961Z,5.70
2018-11-26T17:20:26.293Z,5.70
2018-11-26T17:22:54.651Z,5.60
2018-11-26T17:25:23.030Z,5.60
2018-11-26T17:27:51.555Z,5.60
2018-11-26T17:30:21.337Z,5.50
2018-11-26T17:32:55.841Z,5.50
2018-11-26T17:35:24.197Z,5.50
2018-11-26T17:37:52.571Z,5.50
2018-11-26T17:40:21.984Z,5.50
2018-11-26T17:42:50.746Z,5.40
2018-11-26T17:45:19.855Z,5.40
2018-11-26T17:47:50.098Z,5.40
2018-11-26T17:50:19.997Z,5.40
2018-11-26T17:52:48.381Z,5.40
2018-11-26T17:55:16.810Z,5.40
2018-11-26T17:57:45.158Z,5.40
2018-11-26T18:00:19.896Z,5.40
2018-11-26T18:02:48.249Z,5.40
2018-11-26T18:05:18.035Z,5.40
2018-11-26T18:07:48.074Z,5.30
2018-11-26T18:10:16.469Z,5.40
2018-11-26T18:12:44.847Z,5.30
2018-11-26T18:15:14.173Z,5.30
2018-11-26T18:17:43.629Z,5.30
2018-11-26T18:20:15.269Z,5.30
2018-11-26T18:22:44.969Z,5.30
2018-11-26T18:25:14.623Z,5.40
2018-11-26T18:27:45.741Z,5.40
2018-11-26T18:30:15.907Z,5.40
2018-11-26T18:32:44.328Z,5.40
2018-11-26T18:35:13.952Z,5.40
2018-11-26T18:37:42.331Z,5.30
2018-11-26T18:40:12.647Z,5.30
2018-11-26T18:42:41.097Z,5.30
2018-11-26T18:45:12.583Z,5.30
2018-11-26T18:47:40.998Z,5.30
2018-11-26T18:50:12.593Z,5.30
2018-11-26T18:52:41.231Z,5.30
2018-11-26T18:55:10.462Z,5.30
2018-11-26T18:57:39.779Z,5.30
2018-11-26T19:00:20.823Z,5.30
2018-11-26T19:02:49.367Z,5.30
2018-11-26T19:05:18.743Z,5.30
2018-11-26T19:07:47.171Z,5.30
2018-11-26T19:10:20.886Z,5.30
2018-11-26T19:12:53.149Z,5.30
2018-11-26T19:15:27.102Z,5.30
2018-11-26T19:17:57.992Z,6.00
2018-11-26T19:20:26.433Z,5.30
2018-11-26T19:22:54.894Z,5.30
2018-11-26T19:25:23.699Z,5.30
2018-11-26T19:27:52.178Z,5.30
2018-11-26T19:30:23.028Z,5.30
2018-11-26T19:32:49.964Z,5.40
2018-11-26T19:35:18.537Z,5.50
2018-11-26T19:37:47.020Z,5.40
2018-11-26T19:40:16.390Z,5.40
2018-11-26T19:42:47.073Z,5.40
2018-11-26T19:45:18.686Z,5.40
2018-11-26T19:47:47.530Z,5.40
2018-11-26T19:50:19.595Z,5.40
2018-11-26T19:52:49.553Z,5.40
2018-11-26T19:55:21.053Z,5.40
2018-11-26T19:57:49.919Z,5.40
2018-11-26T20:00:23.786Z,5.40
2018-11-26T20:02:59.085Z,5.40
2018-11-26T20:06:01.943Z,5.40
2018-11-26T20:08:31.030Z,5.40
2018-11-26T20:11:00.719Z,5.40
2018-11-26T20:13:29.497Z,5.40
2018-11-26T20:15:58.641Z,5.40
2018-11-26T20:18:28.607Z,5.40
2018-11-26T20:20:55.963Z,5.40
2018-11-26T20:23:24.481Z,5.40
2018-11-26T20:25:53.749Z,5.40
2018-11-26T20:28:22.700Z,5.40
2018-11-26T20:30:51.626Z,5.40
2018-11-26T20:33:20.111Z,5.40
2018-11-26T20:35:48.585Z,5.40
2018-11-26T20:38:17.112Z,5.40
2018-11-26T20:40:46.389Z,5.30
2018-11-26T20:43:15.695Z,5.30
2018-11-26T20:45:46.327Z,5.40
2018-11-26T20:48:15.563Z,5.40
2018-11-26T20:50:48.667Z,5.30
2018-11-26T20:53:17.590Z,5.30
2018-11-26T20:55:46.995Z,5.30
2018-11-26T20:58:15.447Z,5.30
2018-11-26T21:00:44.099Z,5.30
2018-11-26T21:03:12.617Z,5.30
2018-11-26T21:05:41.905Z,5.30
2018-11-26T21:08:10.404Z,5.30
2018-11-26T21:10:38.950Z,5.20
2018-11-26T21:13:08.598Z,5.20
2018-11-26T21:15:37.179Z,5.20
2018-11-26T21:18:10.079Z,5.20
2018-11-26T21:20:44.300Z,5.10
2018-11-26T21:23:17.404Z,5.10
2018-11-26T21:25:45.984Z,5.10
2018-11-26T21:28:14.423Z,5.10
2018-11-26T21:30:42.895Z,5.10
2018-11-26T21:33:11.315Z,5.10
2018-11-26T21:35:39.727Z,5.10
2018-11-26T21:38:09.681Z,5.00
2018-11-26T21:40:39.093Z,5.00
2018-11-26T21:43:08.256Z,5.00
2018-11-26T21:45:42.693Z,5.00
2018-11-26T21:48:11.138Z,5.00
2018-11-26T21:50:39.565Z,5.00
2018-11-26T21:53:08.147Z,5.00
2018-11-26T21:55:36.563Z,4.90
2018-11-26T21:58:05.223Z,4.90
2018-11-26T22:00:33.770Z,4.80
2018-11-26T22:03:08.228Z,4.80
2018-11-26T22:05:38.375Z,4.70
2018-11-26T22:08:07.329Z,4.70
2018-11-26T22:10:36.712Z,4.70
2018-11-26T22:13:05.874Z,4.70
2018-11-26T22:15:34.235Z,4.60
2018-11-26T22:18:02.595Z,4.60
2018-11-26T22:20:31.620Z,4.70
2018-11-26T22:23:00.001Z,4.60
2018-11-26T22:25:28.374Z,4.60
2018-11-26T22:27:56.821Z,4.60
2018-11-26T22:30:26.557Z,4.50
2018-11-26T22:32:54.970Z,4.50
2018-11-26T22:35:23.326Z,4.50
2018-11-26T22:37:51.706Z,4.40
2018-11-26T22:40:24.271Z,4.40
2018-11-26T22:42:52.657Z,4.40
2018-11-26T22:45:24.364Z,4.30
2018-11-26T22:48:01.998Z,4.30
2018-11-26T22:50:30.303Z,4.30
2018-11-26T22:52:58.662Z,4.30
2018-11-26T22:55:26.994Z,4.20
2018-11-26T22:57:55.321Z,4.30
2018-11-26T23:00:27.013Z,4.30
2018-11-26T23:02:57.577Z,4.30
2018-11-26T23:05:25.899Z,4.30
2018-11-26T23:07:54.249Z,4.30
2018-11-26T23:10:22.650Z,4.30
2018-11-26T23:12:51.017Z,4.30
2018-11-26T23:15:22.402Z,4.40
2018-11-26T23:17:50.743Z,4.40
2018-11-26T23:20:21.636Z,4.40
2018-11-26T23:22:50.568Z,4.40
2018-11-26T23:25:19.749Z,4.40
2018-11-26T23:27:48.563Z,4.40
2018-11-26T23:30:21.630Z,4.40
2018-11-26T23:32:52.015Z,4.40
2018-11-26T23:35:21.892Z,4.40
2018-11-26T23:37:50.222Z,4.40
2018-11-26T23:40:18.525Z,4.40
2018-11-26T23:42:46.837Z,4.40
2018-11-26T23:45:19.567Z,4.40
2018-11-26T23:47:47.909Z,4.40
2018-11-26T23:50:17.365Z,4.40
2018-11-26T23:52:46.311Z,4.40
2018-11-26T23:55:19.925Z,4.40
2018-11-26T23:57:50.963Z,4.40
